sensor_id;sensor_type;location;lat;lon;timestamp;P1;durP1;ratioP1;P2;durP2;ratioP2
1509;SDS011;746;48.688;9.428;2023-04-03T00:00:13;4.37;;;3.97;;
1509;SDS011;746;48.688;9.428;2023-04-03T00:02:34;4.70;;;4.40;;
1509;SDS011;746;48.688;9.428;2023-04-03T00:04:56;5.00;;;4.60;;
1509;SDS011;746;48.688;9.428;2023-04-03T00:07:17;4.40;;;4.00;;
1509;SDS011;746;48.688;9.428;2023-04-03T00:09:40;4.53;;;4.10;;
1509;SDS011;746;48.688;9.428;2023-04-03T00:12:01;4.50;;;4.20;;
1509;SDS011;746;48.688;9.428;2023-04-03T00:14:22;5.00;;;4.60;;
1509;SDS011;746;48.688;9.428;2023-04-03T00:16:44;5.07;;;4.60;;
1509;SDS011;746;48.688;9.428;2023-04-03T00:19:06;4.90;;;4.50;;
1509;SDS011;746;48.688;9.428;2023-04-03T00:21:28;5.13;;;4.83;;
1509;SDS011;746;48.688;9.428;2023-04-03T00:23:49;4.53;;;4.23;;
1509;SDS011;746;48.688;9.428;2023-04-03T00:26:12;6.10;;;5.17;;
1509;SDS011;746;48.688;9.428;2023-04-03T00:28:34;7.00;;;4.27;;
1509;SDS011;746;48.688;9.428;2023-04-03T00:30:55;5.07;;;4.57;;
1509;SDS011;746;48.688;9.428;2023-04-03T00:33:16;4.00;;;3.80;;
1509;SDS011;746;48.688;9.428;2023-04-03T00:35:37;4.90;;;4.60;;
1509;SDS011;746;48.688;9.428;2023-04-03T00:37:59;5.63;;;4.90;;
1509;SDS011;746;48.688;9.428;2023-04-03T00:40:20;5.00;;;4.70;;
1509;SDS011;746;48.688;9.428;2023-04-03T00:42:43;6.87;;;4.93;;
1509;SDS011;746;48.688;9.428;2023-04-03T00:45:25;4.40;;;4.10;;
1509;SDS011;746;48.688;9.428;2023-04-03T00:47:47;4.90;;;4.60;;
1509;SDS011;746;48.688;9.428;2023-04-03T00:50:10;5.03;;;4.53;;
1509;SDS011;746;48.688;9.428;2023-04-03T00:52:32;7.93;;;7.03;;
1509;SDS011;746;48.688;9.428;2023-04-03T00:54:54;6.40;;;5.80;;
1509;SDS011;746;48.688;9.428;2023-04-03T00:57:15;6.53;;;6.03;;
1509;SDS011;746;48.688;9.428;2023-04-03T00:59:38;9.53;;;8.80;;
1509;SDS011;746;48.688;9.428;2023-04-03T01:02:01;10.20;;;9.40;;
1509;SDS011;746;48.688;9.428;2023-04-03T01:04:32;7.87;;;7.17;;
1509;SDS011;746;48.688;9.428;2023-04-03T01:06:54;5.20;;;4.80;;
1509;SDS011;746;48.688;9.428;2023-04-03T01:09:16;5.23;;;4.83;;
1509;SDS011;746;48.688;9.428;2023-04-03T01:11:37;5.97;;;4.77;;
1509;SDS011;746;48.688;9.428;2023-04-03T01:13:59;4.93;;;4.53;;
1509;SDS011;746;48.688;9.428;2023-04-03T01:16:23;4.93;;;4.37;;
1509;SDS011;746;48.688;9.428;2023-04-03T01:18:44;4.93;;;4.63;;
1509;SDS011;746;48.688;9.428;2023-04-03T01:21:10;4.40;;;4.00;;
1509;SDS011;746;48.688;9.428;2023-04-03T01:23:38;4.80;;;4.43;;
1509;SDS011;746;48.688;9.428;2023-04-03T01:26:02;5.13;;;4.73;;
1509;SDS011;746;48.688;9.428;2023-04-03T01:28:25;4.60;;;4.30;;
1509;SDS011;746;48.688;9.428;2023-04-03T01:30:48;5.10;;;4.70;;
1509;SDS011;746;48.688;9.428;2023-04-03T01:33:12;4.70;;;4.40;;
1509;SDS011;746;48.688;9.428;2023-04-03T01:35:33;5.30;;;4.90;;
1509;SDS011;746;48.688;9.428;2023-04-03T01:37:55;4.70;;;4.33;;
1509;SDS011;746;48.688;9.428;2023-04-03T01:40:16;4.50;;;4.20;;
1509;SDS011;746;48.688;9.428;2023-04-03T01:42:38;4.90;;;4.50;;
1509;SDS011;746;48.688;9.428;2023-04-03T01:44:59;5.23;;;4.73;;
1509;SDS011;746;48.688;9.428;2023-04-03T01:47:20;4.43;;;4.13;;
1509;SDS011;746;48.688;9.428;2023-04-03T01:49:43;4.57;;;4.17;;
1509;SDS011;746;48.688;9.428;2023-04-03T01:52:07;5.63;;;4.80;;
1509;SDS011;746;48.688;9.428;2023-04-03T01:54:28;4.70;;;4.30;;
1509;SDS011;746;48.688;9.428;2023-04-03T01:56:50;4.93;;;4.53;;
1509;SDS011;746;48.688;9.428;2023-04-03T01:59:11;5.33;;;4.93;;
1509;SDS011;746;48.688;9.428;2023-04-03T02:01:33;5.97;;;5.50;;
1509;SDS011;746;48.688;9.428;2023-04-03T02:03:54;5.47;;;5.00;;
1509;SDS011;746;48.688;9.428;2023-04-03T02:06:17;5.17;;;4.77;;
1509;SDS011;746;48.688;9.428;2023-04-03T02:08:38;5.07;;;4.57;;
1509;SDS011;746;48.688;9.428;2023-04-03T02:10:59;5.33;;;4.90;;
1509;SDS011;746;48.688;9.428;2023-04-03T02:13:21;4.47;;;4.07;;
1509;SDS011;746;48.688;9.428;2023-04-03T02:15:42;4.90;;;4.60;;
1509;SDS011;746;48.688;9.428;2023-04-03T02:18:03;5.17;;;4.77;;
1509;SDS011;746;48.688;9.428;2023-04-03T02:20:27;4.53;;;4.00;;
1509;SDS011;746;48.688;9.428;2023-04-03T02:22:49;5.00;;;4.60;;
1509;SDS011;746;48.688;9.428;2023-04-03T02:25:10;4.70;;;4.37;;
1509;SDS011;746;48.688;9.428;2023-04-03T02:27:32;4.77;;;4.47;;
1509;SDS011;746;48.688;9.428;2023-04-03T02:29:54;4.63;;;4.30;;
1509;SDS011;746;48.688;9.428;2023-04-03T02:32:15;4.17;;;3.87;;
1509;SDS011;746;48.688;9.428;2023-04-03T02:34:36;4.87;;;4.40;;
1509;SDS011;746;48.688;9.428;2023-04-03T02:36:57;5.57;;;5.07;;
1509;SDS011;746;48.688;9.428;2023-04-03T02:39:20;4.67;;;4.27;;
1509;SDS011;746;48.688;9.428;2023-04-03T02:41:41;5.47;;;5.07;;
1509;SDS011;746;48.688;9.428;2023-04-03T02:44:03;4.97;;;4.50;;
1509;SDS011;746;48.688;9.428;2023-04-03T02:46:24;4.33;;;3.93;;
1509;SDS011;746;48.688;9.428;2023-04-03T02:48:46;5.13;;;4.73;;
1509;SDS011;746;48.688;9.428;2023-04-03T02:51:07;4.77;;;4.47;;
1509;SDS011;746;48.688;9.428;2023-04-03T02:53:28;4.53;;;4.23;;
1509;SDS011;746;48.688;9.428;2023-04-03T02:55:51;5.17;;;4.60;;
1509;SDS011;746;48.688;9.428;2023-04-03T02:58:12;5.03;;;4.57;;
1509;SDS011;746;48.688;9.428;2023-04-03T03:00:34;6.43;;;4.70;;
1509;SDS011;746;48.688;9.428;2023-04-03T03:02:56;4.23;;;4.03;;
1509;SDS011;746;48.688;9.428;2023-04-03T03:05:17;4.17;;;3.80;;
1509;SDS011;746;48.688;9.428;2023-04-03T03:07:39;4.60;;;4.10;;
1509;SDS011;746;48.688;9.428;2023-04-03T03:10:00;4.87;;;4.27;;
1509;SDS011;746;48.688;9.428;2023-04-03T03:12:23;4.17;;;3.83;;
1509;SDS011;746;48.688;9.428;2023-04-03T03:14:44;5.03;;;4.53;;
1509;SDS011;746;48.688;9.428;2023-04-03T03:17:06;5.97;;;4.67;;
1509;SDS011;746;48.688;9.428;2023-04-03T03:19:27;4.40;;;4.10;;
1509;SDS011;746;48.688;9.428;2023-04-03T03:21:48;4.80;;;4.40;;
1509;SDS011;746;48.688;9.428;2023-04-03T03:24:10;4.80;;;4.40;;
1509;SDS011;746;48.688;9.428;2023-04-03T03:26:31;4.50;;;4.20;;
1509;SDS011;746;48.688;9.428;2023-04-03T03:28:54;4.73;;;4.33;;
1509;SDS011;746;48.688;9.428;2023-04-03T03:31:15;4.20;;;3.90;;
1509;SDS011;746;48.688;9.428;2023-04-03T03:33:36;4.80;;;4.40;;
1509;SDS011;746;48.688;9.428;2023-04-03T03:35:58;4.07;;;3.80;;
1509;SDS011;746;48.688;9.428;2023-04-03T03:38:20;4.80;;;4.50;;
1509;SDS011;746;48.688;9.428;2023-04-03T03:40:41;4.93;;;4.40;;
1509;SDS011;746;48.688;9.428;2023-04-03T03:43:02;4.33;;;4.00;;
1509;SDS011;746;48.688;9.428;2023-04-03T03:45:25;4.40;;;4.10;;
1509;SDS011;746;48.688;9.428;2023-04-03T03:47:46;4.20;;;3.80;;
1509;SDS011;746;48.688;9.428;2023-04-03T03:50:08;4.60;;;4.20;;
1509;SDS011;746;48.688;9.428;2023-04-03T03:52:30;4.50;;;4.10;;
1509;SDS011;746;48.688;9.428;2023-04-03T03:54:51;4.30;;;4.00;;
1509;SDS011;746;48.688;9.428;2023-04-03T03:57:12;4.53;;;4.13;;
1509;SDS011;746;48.688;9.428;2023-04-03T03:59:36;4.37;;;4.00;;
1509;SDS011;746;48.688;9.428;2023-04-03T04:01:59;4.70;;;4.10;;
1509;SDS011;746;48.688;9.428;2023-04-03T04:04:21;3.90;;;3.60;;
1509;SDS011;746;48.688;9.428;2023-04-03T04:06:42;4.53;;;4.13;;
1509;SDS011;746;48.688;9.428;2023-04-03T04:09:03;4.17;;;3.97;;
1509;SDS011;746;48.688;9.428;2023-04-03T04:11:25;4.50;;;3.77;;
1509;SDS011;746;48.688;9.428;2023-04-03T04:13:47;4.43;;;4.10;;
1509;SDS011;746;48.688;9.428;2023-04-03T04:16:08;4.20;;;3.80;;
1509;SDS011;746;48.688;9.428;2023-04-03T04:18:31;4.00;;;3.70;;
1509;SDS011;746;48.688;9.428;2023-04-03T04:20:52;3.87;;;3.67;;
1509;SDS011;746;48.688;9.428;2023-04-03T04:23:13;4.23;;;3.83;;
1509;SDS011;746;48.688;9.428;2023-04-03T04:25:35;4.10;;;3.73;;
1509;SDS011;746;48.688;9.428;2023-04-03T04:27:56;4.80;;;4.50;;
1509;SDS011;746;48.688;9.428;2023-04-03T04:30:18;4.47;;;4.10;;
1509;SDS011;746;48.688;9.428;2023-04-03T04:32:39;4.63;;;3.87;;
1509;SDS011;746;48.688;9.428;2023-04-03T04:35:02;4.10;;;3.80;;
1509;SDS011;746;48.688;9.428;2023-04-03T04:37:24;4.43;;;4.00;;
1509;SDS011;746;48.688;9.428;2023-04-03T04:39:45;4.00;;;3.70;;
1509;SDS011;746;48.688;9.428;2023-04-03T04:42:07;4.63;;;4.20;;
1509;SDS011;746;48.688;9.428;2023-04-03T04:44:35;3.97;;;3.67;;
1509;SDS011;746;48.688;9.428;2023-04-03T04:46:56;3.93;;;3.70;;
1509;SDS011;746;48.688;9.428;2023-04-03T04:49:18;4.17;;;3.77;;
1509;SDS011;746;48.688;9.428;2023-04-03T04:51:40;3.83;;;3.50;;
1509;SDS011;746;48.688;9.428;2023-04-03T04:54:10;3.70;;;3.50;;
1509;SDS011;746;48.688;9.428;2023-04-03T04:56:32;4.00;;;3.70;;
1509;SDS011;746;48.688;9.428;2023-04-03T04:58:54;4.27;;;3.87;;
1509;SDS011;746;48.688;9.428;2023-04-03T05:01:16;4.47;;;3.77;;
1509;SDS011;746;48.688;9.428;2023-04-03T05:03:39;3.73;;;3.43;;
1509;SDS011;746;48.688;9.428;2023-04-03T05:06:00;4.17;;;3.77;;
1509;SDS011;746;48.688;9.428;2023-04-03T05:08:23;3.90;;;3.60;;
1509;SDS011;746;48.688;9.428;2023-04-03T05:10:44;3.80;;;3.50;;
1509;SDS011;746;48.688;9.428;2023-04-03T05:13:05;3.50;;;3.30;;
1509;SDS011;746;48.688;9.428;2023-04-03T05:15:27;3.80;;;3.60;;
1509;SDS011;746;48.688;9.428;2023-04-03T05:17:48;4.17;;;3.77;;
1509;SDS011;746;48.688;9.428;2023-04-03T05:20:11;3.67;;;3.47;;
1509;SDS011;746;48.688;9.428;2023-04-03T05:22:32;3.50;;;3.30;;
1509;SDS011;746;48.688;9.428;2023-04-03T05:24:55;4.00;;;3.70;;
1509;SDS011;746;48.688;9.428;2023-04-03T05:27:16;3.77;;;3.57;;
1509;SDS011;746;48.688;9.428;2023-04-03T05:29:38;3.93;;;3.63;;
1509;SDS011;746;48.688;9.428;2023-04-03T05:31:59;3.93;;;3.63;;
1509;SDS011;746;48.688;9.428;2023-04-03T05:34:20;3.67;;;3.47;;
1509;SDS011;746;48.688;9.428;2023-04-03T05:36:41;3.83;;;3.63;;
1509;SDS011;746;48.688;9.428;2023-04-03T05:39:02;3.70;;;3.50;;
1509;SDS011;746;48.688;9.428;2023-04-03T05:41:25;3.87;;;3.57;;
1509;SDS011;746;48.688;9.428;2023-04-03T05:43:46;4.10;;;3.80;;
1509;SDS011;746;48.688;9.428;2023-04-03T05:46:09;4.40;;;4.00;;
1509;SDS011;746;48.688;9.428;2023-04-03T05:48:30;3.77;;;3.47;;
1509;SDS011;746;48.688;9.428;2023-04-03T05:50:52;3.80;;;3.50;;
1509;SDS011;746;48.688;9.428;2023-04-03T05:53:17;3.87;;;3.57;;
1509;SDS011;746;48.688;9.428;2023-04-03T05:55:39;3.67;;;3.37;;
1509;SDS011;746;48.688;9.428;2023-04-03T05:58:02;3.50;;;3.20;;
1509;SDS011;746;48.688;9.428;2023-04-03T06:00:23;3.80;;;3.50;;
1509;SDS011;746;48.688;9.428;2023-04-03T06:02:44;3.50;;;3.20;;
1509;SDS011;746;48.688;9.428;2023-04-03T06:05:06;3.40;;;3.20;;
1509;SDS011;746;48.688;9.428;2023-04-03T06:07:28;3.70;;;3.50;;
1509;SDS011;746;48.688;9.428;2023-04-03T06:09:50;3.37;;;3.17;;
1509;SDS011;746;48.688;9.428;2023-04-03T06:12:12;3.43;;;3.20;;
1509;SDS011;746;48.688;9.428;2023-04-03T06:14:34;3.70;;;3.50;;
1509;SDS011;746;48.688;9.428;2023-04-03T06:16:56;3.63;;;3.43;;
1509;SDS011;746;48.688;9.428;2023-04-03T06:19:17;3.63;;;3.30;;
1509;SDS011;746;48.688;9.428;2023-04-03T06:21:39;3.37;;;3.17;;
1509;SDS011;746;48.688;9.428;2023-04-03T06:24:00;3.30;;;3.07;;
1509;SDS011;746;48.688;9.428;2023-04-03T06:26:22;3.80;;;3.50;;
1509;SDS011;746;48.688;9.428;2023-04-03T06:28:43;3.27;;;3.07;;
1509;SDS011;746;48.688;9.428;2023-04-03T06:31:06;4.37;;;3.30;;
1509;SDS011;746;48.688;9.428;2023-04-03T06:33:27;3.13;;;2.80;;
1509;SDS011;746;48.688;9.428;2023-04-03T06:35:48;3.80;;;3.50;;
1509;SDS011;746;48.688;9.428;2023-04-03T06:38:10;3.60;;;3.20;;
1509;SDS011;746;48.688;9.428;2023-04-03T06:40:31;3.60;;;3.30;;
1509;SDS011;746;48.688;9.428;2023-04-03T06:42:52;3.63;;;3.27;;
1509;SDS011;746;48.688;9.428;2023-04-03T06:45:13;3.50;;;3.20;;
1509;SDS011;746;48.688;9.428;2023-04-03T06:47:36;3.80;;;3.50;;
1509;SDS011;746;48.688;9.428;2023-04-03T06:49:57;3.27;;;3.07;;
1509;SDS011;746;48.688;9.428;2023-04-03T06:52:19;3.80;;;3.50;;
1509;SDS011;746;48.688;9.428;2023-04-03T06:54:40;3.50;;;3.30;;
1509;SDS011;746;48.688;9.428;2023-04-03T06:57:02;3.50;;;3.20;;
1509;SDS011;746;48.688;9.428;2023-04-03T06:59:23;3.47;;;3.20;;
1509;SDS011;746;48.688;9.428;2023-04-03T07:01:45;3.50;;;3.20;;
1509;SDS011;746;48.688;9.428;2023-04-03T07:04:08;3.33;;;3.07;;
1509;SDS011;746;48.688;9.428;2023-04-03T07:06:30;4.37;;;3.37;;
1509;SDS011;746;48.688;9.428;2023-04-03T07:08:53;4.63;;;3.30;;
1509;SDS011;746;48.688;9.428;2023-04-03T07:11:14;3.57;;;3.27;;
1509;SDS011;746;48.688;9.428;2023-04-03T07:13:36;3.83;;;3.53;;
1509;SDS011;746;48.688;9.428;2023-04-03T07:15:57;3.20;;;3.00;;
1509;SDS011;746;48.688;9.428;2023-04-03T07:18:18;3.90;;;3.60;;
1509;SDS011;746;48.688;9.428;2023-04-03T07:20:41;3.50;;;3.30;;
1509;SDS011;746;48.688;9.428;2023-04-03T07:23:02;3.63;;;3.33;;
1509;SDS011;746;48.688;9.428;2023-04-03T07:25:23;3.57;;;3.27;;
1509;SDS011;746;48.688;9.428;2023-04-03T07:27:45;3.30;;;3.10;;
1509;SDS011;746;48.688;9.428;2023-04-03T07:30:07;3.60;;;3.30;;
1509;SDS011;746;48.688;9.428;2023-04-03T07:32:29;4.67;;;3.47;;
1509;SDS011;746;48.688;9.428;2023-04-03T07:34:50;3.30;;;3.10;;
1509;SDS011;746;48.688;9.428;2023-04-03T07:37:13;3.20;;;2.90;;
1509;SDS011;746;48.688;9.428;2023-04-03T07:39:34;3.37;;;3.07;;
1509;SDS011;746;48.688;9.428;2023-04-03T07:41:55;4.30;;;3.20;;
1509;SDS011;746;48.688;9.428;2023-04-03T07:44:16;3.23;;;3.03;;
1509;SDS011;746;48.688;9.428;2023-04-03T07:46:38;2.80;;;2.70;;
1509;SDS011;746;48.688;9.428;2023-04-03T07:49:00;3.83;;;3.30;;
1509;SDS011;746;48.688;9.428;2023-04-03T07:51:21;3.30;;;3.10;;
1509;SDS011;746;48.688;9.428;2023-04-03T07:53:45;3.73;;;3.30;;
1509;SDS011;746;48.688;9.428;2023-04-03T07:56:06;3.00;;;2.80;;
1509;SDS011;746;48.688;9.428;2023-04-03T07:58:28;3.10;;;2.90;;
1509;SDS011;746;48.688;9.428;2023-04-03T08:00:49;4.47;;;3.23;;
1509;SDS011;746;48.688;9.428;2023-04-03T08:03:11;3.70;;;3.40;;
1509;SDS011;746;48.688;9.428;2023-04-03T08:05:35;3.57;;;3.20;;
1509;SDS011;746;48.688;9.428;2023-04-03T08:07:57;3.37;;;3.00;;
1509;SDS011;746;48.688;9.428;2023-04-03T08:10:20;3.40;;;3.03;;
1509;SDS011;746;48.688;9.428;2023-04-03T08:12:41;3.97;;;3.13;;
1509;SDS011;746;48.688;9.428;2023-04-03T08:15:02;4.13;;;3.20;;
1509;SDS011;746;48.688;9.428;2023-04-03T08:17:24;4.20;;;2.83;;
1509;SDS011;746;48.688;9.428;2023-04-03T08:19:45;3.40;;;3.10;;
1509;SDS011;746;48.688;9.428;2023-04-03T08:22:06;3.53;;;2.77;;
1509;SDS011;746;48.688;9.428;2023-04-03T08:24:27;3.50;;;3.30;;
1509;SDS011;746;48.688;9.428;2023-04-03T08:26:50;4.60;;;3.47;;
1509;SDS011;746;48.688;9.428;2023-04-03T08:29:11;3.57;;;2.90;;
1509;SDS011;746;48.688;9.428;2023-04-03T08:31:33;2.90;;;2.70;;
1509;SDS011;746;48.688;9.428;2023-04-03T08:33:56;3.00;;;2.80;;
1509;SDS011;746;48.688;9.428;2023-04-03T08:36:18;3.37;;;2.93;;
1509;SDS011;746;48.688;9.428;2023-04-03T08:38:40;3.40;;;3.20;;
1509;SDS011;746;48.688;9.428;2023-04-03T08:41:02;5.03;;;3.03;;
1509;SDS011;746;48.688;9.428;2023-04-03T08:43:29;3.17;;;2.97;;
1509;SDS011;746;48.688;9.428;2023-04-03T08:45:52;3.13;;;2.83;;
1509;SDS011;746;48.688;9.428;2023-04-03T08:48:15;3.17;;;2.97;;
1509;SDS011;746;48.688;9.428;2023-04-03T08:50:37;3.20;;;2.97;;
1509;SDS011;746;48.688;9.428;2023-04-03T08:53:00;3.20;;;2.90;;
1509;SDS011;746;48.688;9.428;2023-04-03T08:55:23;3.63;;;3.10;;
1509;SDS011;746;48.688;9.428;2023-04-03T08:57:46;3.23;;;2.93;;
1509;SDS011;746;48.688;9.428;2023-04-03T09:00:14;3.13;;;2.93;;
1509;SDS011;746;48.688;9.428;2023-04-03T09:02:40;3.20;;;3.00;;
1509;SDS011;746;48.688;9.428;2023-04-03T09:05:05;3.10;;;2.90;;
1509;SDS011;746;48.688;9.428;2023-04-03T09:07:33;3.40;;;3.10;;
1509;SDS011;746;48.688;9.428;2023-04-03T09:09:55;3.13;;;2.87;;
1509;SDS011;746;48.688;9.428;2023-04-03T09:12:19;4.10;;;3.07;;
1509;SDS011;746;48.688;9.428;2023-04-03T09:14:45;3.20;;;2.90;;
1509;SDS011;746;48.688;9.428;2023-04-03T09:17:12;3.63;;;3.30;;
1509;SDS011;746;48.688;9.428;2023-04-03T09:19:36;3.00;;;2.80;;
1509;SDS011;746;48.688;9.428;2023-04-03T09:22:09;3.30;;;3.10;;
1509;SDS011;746;48.688;9.428;2023-04-03T09:24:32;4.63;;;2.70;;
1509;SDS011;746;48.688;9.428;2023-04-03T09:26:55;2.83;;;2.60;;
1509;SDS011;746;48.688;9.428;2023-04-03T09:29:19;3.23;;;2.67;;
1509;SDS011;746;48.688;9.428;2023-04-03T09:31:42;2.90;;;2.70;;
1509;SDS011;746;48.688;9.428;2023-04-03T09:34:06;3.00;;;2.70;;
1509;SDS011;746;48.688;9.428;2023-04-03T09:36:38;3.00;;;2.70;;
1509;SDS011;746;48.688;9.428;2023-04-03T09:39:02;3.00;;;2.73;;
1509;SDS011;746;48.688;9.428;2023-04-03T09:41:24;2.80;;;2.60;;
1509;SDS011;746;48.688;9.428;2023-04-03T09:43:51;2.67;;;2.47;;
1509;SDS011;746;48.688;9.428;2023-04-03T09:46:17;2.53;;;2.33;;
1509;SDS011;746;48.688;9.428;2023-04-03T09:48:40;2.43;;;2.30;;
1509;SDS011;746;48.688;9.428;2023-04-03T09:51:26;2.77;;;2.43;;
1509;SDS011;746;48.688;9.428;2023-04-03T09:53:48;2.80;;;2.10;;
1509;SDS011;746;48.688;9.428;2023-04-03T09:56:18;2.23;;;2.13;;
1509;SDS011;746;48.688;9.428;2023-04-03T09:58:42;2.43;;;2.33;;
1509;SDS011;746;48.688;9.428;2023-04-03T10:01:20;2.47;;;2.27;;
1509;SDS011;746;48.688;9.428;2023-04-03T10:03:42;2.53;;;2.33;;
1509;SDS011;746;48.688;9.428;2023-04-03T10:06:14;3.83;;;2.30;;
1509;SDS011;746;48.688;9.428;2023-04-03T10:08:43;2.70;;;2.47;;
1509;SDS011;746;48.688;9.428;2023-04-03T10:11:18;2.13;;;2.03;;
1509;SDS011;746;48.688;9.428;2023-04-03T10:13:50;2.10;;;2.00;;
1509;SDS011;746;48.688;9.428;2023-04-03T10:16:12;2.10;;;2.00;;
1509;SDS011;746;48.688;9.428;2023-04-03T10:18:37;2.07;;;1.97;;
1509;SDS011;746;48.688;9.428;2023-04-03T10:21:02;2.23;;;2.13;;
1509;SDS011;746;48.688;9.428;2023-04-03T10:23:37;2.57;;;2.37;;
1509;SDS011;746;48.688;9.428;2023-04-03T10:26:05;2.20;;;2.00;;
1509;SDS011;746;48.688;9.428;2023-04-03T10:28:34;2.40;;;2.20;;
1509;SDS011;746;48.688;9.428;2023-04-03T10:30:58;2.43;;;2.23;;
1509;SDS011;746;48.688;9.428;2023-04-03T10:33:37;2.37;;;2.20;;
1509;SDS011;746;48.688;9.428;2023-04-03T10:36:03;2.60;;;2.40;;
1509;SDS011;746;48.688;9.428;2023-04-03T10:38:31;2.50;;;2.30;;
1509;SDS011;746;48.688;9.428;2023-04-03T10:40:55;2.30;;;2.10;;
1509;SDS011;746;48.688;9.428;2023-04-03T10:43:22;2.93;;;2.43;;
1509;SDS011;746;48.688;9.428;2023-04-03T10:45:53;3.53;;;2.23;;
1509;SDS011;746;48.688;9.428;2023-04-03T10:48:18;2.47;;;2.27;;
1509;SDS011;746;48.688;9.428;2023-04-03T10:50:44;2.80;;;2.50;;
1509;SDS011;746;48.688;9.428;2023-04-03T10:53:14;6.53;;;2.43;;
1509;SDS011;746;48.688;9.428;2023-04-03T10:55:41;3.27;;;2.10;;
1509;SDS011;746;48.688;9.428;2023-04-03T10:58:08;3.27;;;2.20;;
1509;SDS011;746;48.688;9.428;2023-04-03T11:00:38;2.43;;;2.23;;
1509;SDS011;746;48.688;9.428;2023-04-03T11:03:01;2.17;;;2.07;;
1509;SDS011;746;48.688;9.428;2023-04-03T11:05:27;2.13;;;2.03;;
1509;SDS011;746;48.688;9.428;2023-04-03T11:07:50;2.13;;;2.00;;
1509;SDS011;746;48.688;9.428;2023-04-03T11:10:13;2.13;;;2.03;;
1509;SDS011;746;48.688;9.428;2023-04-03T11:12:38;2.40;;;2.20;;
1509;SDS011;746;48.688;9.428;2023-04-03T11:15:01;2.33;;;2.13;;
1509;SDS011;746;48.688;9.428;2023-04-03T11:17:26;2.70;;;2.07;;
1509;SDS011;746;48.688;9.428;2023-04-03T11:19:52;2.27;;;2.00;;
1509;SDS011;746;48.688;9.428;2023-04-03T11:22:21;2.57;;;2.10;;
1509;SDS011;746;48.688;9.428;2023-04-03T11:24:43;2.97;;;2.10;;
1509;SDS011;746;48.688;9.428;2023-04-03T11:27:08;2.77;;;2.00;;
1509;SDS011;746;48.688;9.428;2023-04-03T11:29:34;2.13;;;2.00;;
1509;SDS011;746;48.688;9.428;2023-04-03T11:32:02;2.40;;;2.20;;
1509;SDS011;746;48.688;9.428;2023-04-03T11:34:29;3.30;;;2.00;;
1509;SDS011;746;48.688;9.428;2023-04-03T11:36:56;2.50;;;2.30;;
1509;SDS011;746;48.688;9.428;2023-04-03T11:39:20;2.60;;;2.40;;
1509;SDS011;746;48.688;9.428;2023-04-03T11:41:44;2.27;;;2.10;;
1509;SDS011;746;48.688;9.428;2023-04-03T11:44:06;2.43;;;2.23;;
1509;SDS011;746;48.688;9.428;2023-04-03T11:49:08;3.83;;;2.10;;
1509;SDS011;746;48.688;9.428;2023-04-03T11:51:49;3.20;;;2.20;;
1509;SDS011;746;48.688;9.428;2023-04-03T11:57:04;2.20;;;2.00;;
1509;SDS011;746;48.688;9.428;2023-04-03T11:59:43;2.83;;;2.00;;
1509;SDS011;746;48.688;9.428;2023-04-03T12:02:13;3.63;;;2.30;;
1509;SDS011;746;48.688;9.428;2023-04-03T12:07:26;3.00;;;2.20;;
1509;SDS011;746;48.688;9.428;2023-04-03T12:09:54;2.03;;;1.83;;
1509;SDS011;746;48.688;9.428;2023-04-03T12:12:21;2.30;;;2.10;;
1509;SDS011;746;48.688;9.428;2023-04-03T12:14:44;4.60;;;2.07;;
1509;SDS011;746;48.688;9.428;2023-04-03T12:17:12;1.97;;;1.87;;
1509;SDS011;746;48.688;9.428;2023-04-03T12:19:39;2.43;;;2.23;;
1509;SDS011;746;48.688;9.428;2023-04-03T12:22:10;2.60;;;2.40;;
1509;SDS011;746;48.688;9.428;2023-04-03T12:24:34;2.03;;;1.93;;
1509;SDS011;746;48.688;9.428;2023-04-03T12:27:03;2.20;;;1.97;;
1509;SDS011;746;48.688;9.428;2023-04-03T12:29:27;2.97;;;2.03;;
1509;SDS011;746;48.688;9.428;2023-04-03T12:32:01;2.83;;;2.23;;
1509;SDS011;746;48.688;9.428;2023-04-03T12:34:43;5.00;;;2.17;;
1509;SDS011;746;48.688;9.428;2023-04-03T12:37:07;2.57;;;1.93;;
1509;SDS011;746;48.688;9.428;2023-04-03T12:39:39;2.43;;;1.90;;
1509;SDS011;746;48.688;9.428;2023-04-03T12:42:05;2.10;;;1.90;;
1509;SDS011;746;48.688;9.428;2023-04-03T12:44:38;2.90;;;2.03;;
1509;SDS011;746;48.688;9.428;2023-04-03T12:47:16;2.03;;;1.90;;
1509;SDS011;746;48.688;9.428;2023-04-03T12:49:39;2.13;;;2.00;;
1509;SDS011;746;48.688;9.428;2023-04-03T12:52:02;2.17;;;2.07;;
1509;SDS011;746;48.688;9.428;2023-04-03T12:54:27;2.80;;;2.10;;
1509;SDS011;746;48.688;9.428;2023-04-03T12:56:51;4.60;;;2.10;;
1509;SDS011;746;48.688;9.428;2023-04-03T12:59:13;1.90;;;1.80;;
1509;SDS011;746;48.688;9.428;2023-04-03T13:01:35;3.93;;;2.10;;
1509;SDS011;746;48.688;9.428;2023-04-03T13:03:57;2.23;;;2.13;;
1509;SDS011;746;48.688;9.428;2023-04-03T13:06:20;2.30;;;2.10;;
1509;SDS011;746;48.688;9.428;2023-04-03T13:08:48;2.37;;;2.17;;
1509;SDS011;746;48.688;9.428;2023-04-03T13:11:10;2.20;;;2.10;;
1509;SDS011;746;48.688;9.428;2023-04-03T13:13:33;2.03;;;1.93;;
1509;SDS011;746;48.688;9.428;2023-04-03T13:15:55;2.03;;;1.93;;
1509;SDS011;746;48.688;9.428;2023-04-03T13:18:24;2.70;;;2.40;;
1509;SDS011;746;48.688;9.428;2023-04-03T13:20:45;3.77;;;2.10;;
1509;SDS011;746;48.688;9.428;2023-04-03T13:23:10;2.87;;;2.40;;
1509;SDS011;746;48.688;9.428;2023-04-03T13:25:35;3.30;;;2.17;;
1509;SDS011;746;48.688;9.428;2023-04-03T13:27:57;2.30;;;2.10;;
1509;SDS011;746;48.688;9.428;2023-04-03T13:30:25;2.57;;;2.37;;
1509;SDS011;746;48.688;9.428;2023-04-03T13:32:47;2.50;;;2.30;;
1509;SDS011;746;48.688;9.428;2023-04-03T13:37:53;3.30;;;1.97;;
1509;SDS011;746;48.688;9.428;2023-04-03T13:40:15;2.30;;;2.10;;
1509;SDS011;746;48.688;9.428;2023-04-03T13:42:37;3.50;;;2.20;;
1509;SDS011;746;48.688;9.428;2023-04-03T13:45:08;2.90;;;2.23;;
1509;SDS011;746;48.688;9.428;2023-04-03T13:47:37;2.03;;;1.93;;
1509;SDS011;746;48.688;9.428;2023-04-03T13:50:00;2.10;;;2.00;;
1509;SDS011;746;48.688;9.428;2023-04-03T13:52:22;2.67;;;2.17;;
1509;SDS011;746;48.688;9.428;2023-04-03T13:54:45;2.50;;;2.30;;
1509;SDS011;746;48.688;9.428;2023-04-03T13:57:12;2.60;;;2.40;;
1509;SDS011;746;48.688;9.428;2023-04-03T13:59:35;2.30;;;2.10;;
1509;SDS011;746;48.688;9.428;2023-04-03T14:02:09;2.90;;;2.10;;
1509;SDS011;746;48.688;9.428;2023-04-03T14:04:43;2.37;;;2.20;;
1509;SDS011;746;48.688;9.428;2023-04-03T14:07:05;2.53;;;2.03;;
1509;SDS011;746;48.688;9.428;2023-04-03T14:09:27;2.50;;;2.30;;
1509;SDS011;746;48.688;9.428;2023-04-03T14:11:49;2.60;;;2.30;;
1509;SDS011;746;48.688;9.428;2023-04-03T14:14:12;2.03;;;1.93;;
1509;SDS011;746;48.688;9.428;2023-04-03T14:16:37;2.00;;;1.90;;
1509;SDS011;746;48.688;9.428;2023-04-03T14:18:58;2.90;;;2.70;;
1509;SDS011;746;48.688;9.428;2023-04-03T14:21:21;2.60;;;2.40;;
1509;SDS011;746;48.688;9.428;2023-04-03T14:23:43;2.40;;;2.20;;
1509;SDS011;746;48.688;9.428;2023-04-03T14:26:04;2.50;;;2.10;;
1509;SDS011;746;48.688;9.428;2023-04-03T14:28:27;3.27;;;2.20;;
1509;SDS011;746;48.688;9.428;2023-04-03T14:30:48;2.23;;;2.13;;
1509;SDS011;746;48.688;9.428;2023-04-03T14:33:10;2.17;;;2.03;;
1509;SDS011;746;48.688;9.428;2023-04-03T14:35:33;2.50;;;2.30;;
1509;SDS011;746;48.688;9.428;2023-04-03T14:37:56;2.70;;;2.50;;
1509;SDS011;746;48.688;9.428;2023-04-03T14:40:19;2.47;;;2.27;;
1509;SDS011;746;48.688;9.428;2023-04-03T14:42:41;2.50;;;2.30;;
1509;SDS011;746;48.688;9.428;2023-04-03T14:45:04;2.67;;;2.47;;
1509;SDS011;746;48.688;9.428;2023-04-03T14:47:26;2.50;;;2.30;;
1509;SDS011;746;48.688;9.428;2023-04-03T14:49:51;2.40;;;2.23;;
1509;SDS011;746;48.688;9.428;2023-04-03T14:52:16;3.13;;;2.23;;
1509;SDS011;746;48.688;9.428;2023-04-03T14:54:39;3.57;;;2.57;;
1509;SDS011;746;48.688;9.428;2023-04-03T14:57:01;2.50;;;2.30;;
1509;SDS011;746;48.688;9.428;2023-04-03T14:59:22;2.33;;;2.20;;
1509;SDS011;746;48.688;9.428;2023-04-03T15:01:43;2.77;;;2.53;;
1509;SDS011;746;48.688;9.428;2023-04-03T15:04:08;2.10;;;2.00;;
1509;SDS011;746;48.688;9.428;2023-04-03T15:06:31;2.40;;;2.20;;
1509;SDS011;746;48.688;9.428;2023-04-03T15:08:53;2.40;;;2.30;;
1509;SDS011;746;48.688;9.428;2023-04-03T15:11:16;3.23;;;2.30;;
1509;SDS011;746;48.688;9.428;2023-04-03T15:13:37;3.70;;;2.13;;
1509;SDS011;746;48.688;9.428;2023-04-03T15:15:59;1.97;;;1.87;;